North Bay Airport
CYYB : now visible

Airfield :











YOU CAN JOIN US ON...

 
LOGIN :

Register | Disclaimer

   EN    FR    IT 

 









Legend :    VFR   Marginal VFR   IFR   Intensive IFR   Very Intensive IFR
Visi :
Ceiling :
>= 8 km
>= 3000ft
5 to 8 km
1000 to 3000 ft
1500m to 5 km
500 to 1000 ft
800 to 1500m
200 to 500 ft
< 800m
< 200 ft
Symbols :   Thunderstorms  Fog  Heavy snow  Heavy precipitations  Wind > 20 kt






- Airport Elevation : 1215 ft
- IATA code : YYB


CYYB - North Bay

CURRENT METAR :
  • 052300Z 02006KT 2 1/2SM -SN BKN004 OVC040 M05/M06 A2976 RMK SF5SC3 SLP101

EXPIRED METARs :
  • 052234Z 03005KT 2 1/2SM -SN BKN004 OVC040 M04/M05 A2974 RMK SF5SC3 SLP096
  • 052138Z 02004KT 360V060 2 1/2SM -SN BR SCT003 OVC025 M03/M04 A2972 RMK SF3SC5 SLP087
  • 052100Z CCA VRB02KT 2 1/2SM -FZDZ -SN BR SCT004 OVC023 M03/M04 A2970 RMK SF3SC5 SLP081
  • 052000Z 04003KT 2 1/2SM -FZDZ -SN OVC015 M03/M04 A2968 RMK SC8 SLP074

TAF AMD TAF CYYB
Valid from the 05 at 22:00 until the 06 at 08:00 UTC


052222Z 0522/0608 04005KT P6SM -SN SCT006 OVC015
TEMPO 0522/0523 2SM -SN -FZDZ BKN004 OVC020
FM052300 02012KT 1SM -SN BKN008 OVC012
TEMPO 0523/0603 6SM -SN SCT008 OVC020
FM060300 01012KT P6SM BKN012 BKN025
FM060600 02010KT P6SM SCT012
TEMPO 0606/0608 BKN012 RMK NXT FCST BY 060200Z
CZYZ FIR / North America



MET'MAP, your aeronautical weather chart ! - Copyright ORBIFLY December 2007 - Disclaimer

ORBIFLY MET'MAP TEAM :

Programming & Development : Alexandra Zaïnal
Original concept : Baudouin d'Aumeries
Technical & hardware support : Manuel Goepfert
Assistance : Marc-Olivier Méhu




SOURCES & CREDITS :

   NOAA       Earth
Advisory